Terminal Aerodrome Forecast
Issued by NWS Chicago, IL

Home | Current Version | Previous Version | Graphics & Text | Print | Product List | Glossary On
Versions: 1 2 3 4 5 6 7 8 9 10 11 12 13 14 15 16 17 18 19 20 21 22 23 24 25 26 27 28
101
FTUS43 KLOT 042056 AAA
TAFRFD
TAF AMD
KRFD 042056Z 0421/0518 18008KT 3/4SM -SN BR OVC005
      TEMPO 0421/0422 1/4SM -SN FG
     FM042300 21007KT 6SM -SNDZ BR OVC006
     FM050100 24008KT P6SM OVC008
     FM051400 19010KT P6SM BKN008=

USA.gov is the U.S. government's official web portal to all federal, state and local government web resources and services.